Time;durP1;ratioP1;P1;durP2;ratioP2;P2;SDS_P1;SDS_P2;PMS_P1;PMS_P2;Temp;Humidity;BMP_temperature;BMP_pressure;BME280_temperature;BME280_humidity;BME280_pressure;Samples;Min_cycle;Max_cycle;Signal;HPM_P1;HPM_P2
2022/02/05 00:00:25;;;;;;;207.25;101.95;;;;;;;0.07;81.54;93199.97;5106753;28;20051;-77
2022/02/05 00:02:57;;;;;;;35.95;17.20;;;;;;;-0.02;81.29;93195.78;5106444;28;20118;-77
2022/02/05 00:05:32;;;;;;;25.15;10.25;;;;;;;-0.04;81.32;93182.50;5106537;28;20088;-77
2022/02/05 00:08:18;;;;;;;26.55;13.55;;;;;;;-0.12;80.64;93173.13;5106596;28;20036;-77
2022/02/05 00:13:47;;;;;;;22.20;10.48;;;;;;;-0.05;81.29;93209.47;5106466;28;20438;-77
2022/02/05 00:38:22;;;;;;;47.25;25.17;;;;;;;-2.93;99.71;93226.25;5085679;28;20067;-76
2022/02/05 00:40:56;;;;;;;49.75;25.08;;;;;;;-3.20;100.00;93203.22;5085927;28;20044;-76
2022/02/05 00:43:23;;;;;;;58.33;28.95;;;;;;;-3.10;100.00;93226.69;5085504;28;20040;-76
2022/02/05 00:45:53;;;;;;;59.97;29.10;;;;;;;-3.20;100.00;93197.44;5082918;28;20405;-76
2022/02/05 00:48:21;;;;;;;73.80;35.03;;;;;;;-3.06;100.00;93212.16;5072146;28;20048;-76
2022/02/05 00:50:52;;;;;;;77.60;39.00;;;;;;;-3.03;100.00;93216.94;5072187;28;20090;-76
2022/02/05 00:53:28;;;;;;;70.63;35.65;;;;;;;-3.25;100.00;93207.84;5071893;28;20040;-76
2022/02/05 00:56:04;;;;;;;;;;;;;;;-3.25;100.00;93218.69;5072156;28;20048;-76
2022/02/05 00:58:31;;;;;;;65.10;33.38;;;;;;;-3.25;100.00;93216.19;5071803;28;19927;-76
2022/02/05 01:00:58;;;;;;;58.15;31.45;;;;;;;-3.30;100.00;93212.44;5071695;28;20086;-76
2022/02/05 01:03:25;;;;;;;63.55;31.65;;;;;;;-3.39;100.00;93216.50;5071853;28;20049;-77
2022/02/05 01:05:52;;;;;;;57.72;28.20;;;;;;;-3.26;100.00;93208.75;5071721;28;20048;-76
2022/02/05 01:08:19;;;;;;;55.92;27.83;;;;;;;-3.33;100.00;93205.97;5071798;28;20075;-76
2022/02/05 01:10:46;;;;;;;48.25;27.33;;;;;;;-3.23;100.00;93206.78;5071884;28;20037;-76
2022/02/05 01:13:14;;;;;;;56.88;30.52;;;;;;;-3.17;100.00;93199.69;5071253;28;20041;-76
2022/02/05 01:15:49;;;;;;;41.13;21.65;;;;;;;-3.18;100.00;93198.09;5071411;28;20060;-76
2022/02/05 01:18:17;;;;;;;48.25;23.45;;;;;;;-3.20;100.00;93194.91;5071565;28;20388;-77
2022/02/05 01:21:04;;;;;;;40.92;22.17;;;;;;;-3.18;100.00;93188.03;5071314;28;20098;-76
2022/02/05 01:23:37;;;;;;;51.30;24.65;;;;;;;-3.23;100.00;93179.16;5071185;28;20048;-77
2022/02/05 01:26:12;;;;;;;63.95;33.83;;;;;;;-3.13;100.00;93190.97;5071557;28;20044;-77
2022/02/05 01:28:42;;;;;;;59.58;32.67;;;;;;;-3.18;100.00;93180.50;5071175;28;20036;-77
2022/02/05 01:31:09;;;;;;;85.10;41.75;;;;;;;-3.17;100.00;93174.53;5071160;28;20131;-77
2022/02/05 01:33:52;;;;;;;141.75;68.30;;;;;;;-3.19;100.00;93179.72;5071035;28;20048;-77
2022/02/05 01:36:40;;;;;;;137.32;68.40;;;;;;;-3.28;100.00;93171.19;5071411;28;20052;-77
2022/02/05 01:53:13;;;;;;;56.55;30.70;;;;;;;-4.16;100.00;93167.28;5067018;28;20052;-76
2022/02/05 01:55:56;;;;;;;62.90;31.92;;;;;;;-3.95;100.00;93183.28;5070772;28;20080;-76
2022/02/05 01:58:35;;;;;;;52.72;28.45;;;;;;;-4.10;100.00;93187.78;5069615;28;20090;-76
2022/02/05 02:06:57;;;;;;;48.90;26.58;;;;;;;-4.31;100.00;93168.50;5070466;28;20525;-76
2022/02/05 02:09:44;;;;;;;50.20;25.13;;;;;;;-4.31;100.00;93184.34;5070301;28;20201;-76
2022/02/05 02:12:14;;;;;;;43.30;23.20;;;;;;;-4.45;100.00;93182.09;5070596;28;20048;-76
2022/02/05 02:14:48;;;;;;;51.17;25.95;;;;;;;-4.63;100.00;93156.78;5070206;28;20056;-77
2022/02/05 02:20:31;;;;;;;61.88;31.15;;;;;;;-4.51;100.00;93172.56;5069916;28;20098;-76
2022/02/05 02:23:15;;;;;;;62.78;33.35;;;;;;;-4.40;100.00;93182.53;5070435;28;20109;-77
2022/02/05 02:25:54;;;;;;;65.57;32.20;;;;;;;-4.36;100.00;93181.41;5070325;28;20048;-77
2022/02/05 02:28:27;;;;;;;63.28;31.08;;;;;;;-4.31;100.00;93179.34;5070095;28;20052;-77
2022/02/05 02:31:00;;;;;;;63.80;31.08;;;;;;;-4.02;100.00;93176.25;5070141;28;20045;-78
2022/02/05 02:33:32;;;;;;;63.80;32.67;;;;;;;-3.83;100.00;93186.53;5070233;28;20131;-78
2022/02/05 02:35:59;;;;;;;78.70;35.85;;;;;;;-3.76;100.00;93178.38;5070237;28;20055;-78
2022/02/05 02:38:36;;;;;;;71.10;33.65;;;;;;;-3.58;100.00;93189.56;5069862;28;20055;-78
2022/02/05 02:41:07;;;;;;;67.85;34.85;;;;;;;-3.45;100.00;93197.72;5069793;28;20051;-78
2022/02/05 02:43:35;;;;;;;60.88;30.67;;;;;;;-3.46;100.00;93190.28;5069827;28;20051;-78
2022/02/05 02:46:02;;;;;;;75.75;35.42;;;;;;;-3.49;100.00;93191.34;5069953;28;20127;-78
2022/02/05 02:48:29;;;;;;;85.03;39.10;;;;;;;-3.47;100.00;93196.25;5069902;28;20041;-78
2022/02/05 02:56:44;;;;;;;83.65;36.08;;;;;;;-3.48;100.00;93200.47;5069534;28;20071;-78
2022/02/05 02:59:22;;;;;;;75.63;35.15;;;;;;;-3.41;100.00;93213.31;5069697;28;20098;-78
2022/02/05 03:01:57;;;;;;;85.18;38.70;;;;;;;-3.45;100.00;93214.50;5070129;28;20041;-78
2022/02/05 03:04:23;;;;;;;93.82;41.15;;;;;;;-3.45;100.00;93214.50;5069724;28;20450;-78
2022/02/05 03:06:50;;;;;;;86.25;39.50;;;;;;;-3.43;100.00;93225.22;5069661;28;20049;-78
2022/02/05 03:09:19;;;;;;;103.65;42.30;;;;;;;-3.54;100.00;93203.47;5069554;28;20093;-78
2022/02/05 03:11:45;;;;;;;86.50;41.45;;;;;;;-3.44;100.00;93236.97;5069882;28;20052;-78
2022/02/05 03:14:12;;;;;;;105.88;44.33;;;;;;;-3.55;100.00;93220.28;5069587;28;20040;-78
2022/02/05 03:16:46;;;;;;;107.95;41.88;;;;;;;-3.52;100.00;93227.53;5069479;28;20048;-78
2022/02/05 03:19:15;;;;;;;101.18;40.15;;;;;;;-3.46;100.00;93233.81;5069210;28;20094;-78
2022/02/05 03:21:43;;;;;;;69.03;33.58;;;;;;;-3.54;100.00;93224.38;5069540;28;20361;-79
2022/02/05 03:24:10;;;;;;;65.00;35.13;;;;;;;-3.59;100.00;93233.97;5069568;28;20127;-78
2022/02/05 03:26:39;;;;;;;66.18;35.72;;;;;;;-3.61;100.00;93238.34;5069397;28;20561;-78
2022/02/05 03:29:07;;;;;;;66.50;33.95;;;;;;;-3.79;100.00;93218.78;5069260;28;20051;-78
2022/02/05 03:31:35;;;;;;;59.55;30.52;;;;;;;-3.66;100.00;93247.94;5069228;28;20040;-78
2022/02/05 03:34:01;;;;;;;55.08;29.52;;;;;;;-3.65;100.00;93250.31;5069491;28;20408;-77
2022/02/05 03:36:28;;;;;;;49.05;26.17;;;;;;;-3.69;100.00;93249.00;5069224;28;20044;-78
2022/02/05 03:38:55;;;;;;;51.67;27.75;;;;;;;-3.74;100.00;93240.22;5069432;28;20048;-78
2022/02/05 03:41:22;;;;;;;51.22;30.00;;;;;;;-3.76;100.00;93236.13;5069528;28;20041;-78
2022/02/05 03:43:50;;;;;;;59.60;30.02;;;;;;;-3.72;100.00;93243.38;5069589;28;20041;-78
2022/02/05 03:46:17;;;;;;;50.72;27.73;;;;;;;-3.81;100.00;93243.22;5069063;28;20476;-78
2022/02/05 03:48:44;;;;;;;54.78;29.65;;;;;;;-3.91;100.00;93245.66;5069393;28;20101;-78
2022/02/05 03:51:11;;;;;;;50.33;29.02;;;;;;;-3.93;100.00;93246.69;5069294;28;20057;-78
2022/02/05 03:53:38;;;;;;;48.22;27.25;;;;;;;-3.89;100.00;93243.81;5069495;28;20048;-78
2022/02/05 03:56:05;;;;;;;46.47;25.35;;;;;;;-3.91;100.00;93248.19;5069304;28;20094;-78
2022/02/05 03:58:32;;;;;;;42.45;22.15;;;;;;;-3.89;100.00;93248.06;5069117;28;20048;-77
2022/02/05 04:01:00;;;;;;;37.47;20.15;;;;;;;-4.04;100.00;93230.78;5069202;28;20049;-77
2022/02/05 04:03:27;;;;;;;34.40;18.05;;;;;;;-3.93;100.00;93250.00;5068885;28;21015;-78
2022/02/05 04:05:54;;;;;;;35.50;18.45;;;;;;;-3.93;100.00;93254.22;5068759;28;20135;-77
2022/02/05 04:08:20;;;;;;;36.40;19.17;;;;;;;-3.95;100.00;93256.03;5068910;28;20044;-77
2022/02/05 04:10:52;;;;;;;40.83;19.35;;;;;;;-3.97;100.00;93250.34;5068854;28;20044;-76
2022/02/05 04:16:21;;;;;;;51.90;23.25;;;;;;;-4.12;100.00;93269.91;5068755;28;20055;-76
2022/02/05 04:18:48;;;;;;;46.60;23.92;;;;;;;-4.24;100.00;93256.59;5068753;28;20041;-77
2022/02/05 04:21:15;;;;;;;51.03;24.65;;;;;;;-4.26;100.00;93270.97;5069559;28;20044;-77
2022/02/05 04:23:42;;;;;;;52.15;25.80;;;;;;;-4.27;100.00;93270.19;5072589;28;20044;-76
2022/02/05 04:26:09;;;;;;;46.53;24.73;;;;;;;-4.34;100.00;93259.84;5072734;28;20048;-76
2022/02/05 04:28:36;;;;;;;61.45;31.02;;;;;;;-4.38;100.00;93257.66;5072650;28;20045;-76
2022/02/05 04:31:04;;;;;;;55.65;30.27;;;;;;;-4.39;100.00;93256.06;5072370;28;20086;-76
2022/02/05 04:33:31;;;;;;;54.65;28.80;;;;;;;-4.32;100.00;93252.97;5072520;28;20049;-76
2022/02/05 04:35:58;;;;;;;49.70;27.60;;;;;;;-4.21;100.00;93244.63;5072480;28;20056;-76
2022/02/05 04:38:26;;;;;;;50.80;26.80;;;;;;;-4.12;100.00;93235.56;5072492;28;20040;-75
2022/02/05 04:40:56;;;;;;;44.83;25.05;;;;;;;-4.03;100.00;93239.88;5072379;28;20083;-75
2022/02/05 04:43:45;;;;;;;40.33;21.83;;;;;;;-3.98;100.00;93243.75;5072448;28;20051;-75
2022/02/05 04:57:35;;;;;;;108.22;45.50;;;;;;;-4.93;100.00;93231.66;5083474;28;20048;-76
2022/02/05 05:00:18;;;;;;;94.95;40.78;;;;;;;-4.84;100.00;93227.66;5107039;28;20044;-75
2022/02/05 05:02:57;;;;;;;87.30;41.10;;;;;;;-4.70;100.00;93224.91;5107009;28;20040;-75
2022/02/05 05:05:41;;;;;;;95.88;41.42;;;;;;;-4.64;100.00;93228.66;5107217;28;20040;-75
2022/02/05 05:11:36;;;;;;;111.57;53.22;;;;;;;-4.94;100.00;93217.53;5058784;27;2033265;-75
2022/02/05 05:19:36;;;;;;;129.77;56.95;;;;;;;-5.05;100.00;93225.06;5104793;28;20492;-75
2022/02/05 05:22:05;;;;;;;95.75;43.85;;;;;;;-5.13;100.00;93215.63;5083971;28;20109;-75
2022/02/05 05:24:32;;;;;;;105.00;47.47;;;;;;;-4.93;100.00;93203.28;5085870;28;20044;-75
2022/02/05 05:27:00;;;;;;;101.80;48.78;;;;;;;-4.78;100.00;93216.41;5086498;28;20442;-75
2022/02/05 05:29:27;;;;;;;106.80;51.40;;;;;;;-4.65;100.00;93223.75;5086384;28;20044;-75
2022/02/05 05:31:54;;;;;;;108.25;52.63;;;;;;;-4.67;100.00;93238.13;5086462;28;20503;-75
2022/02/05 05:34:21;;;;;;;92.85;45.78;;;;;;;-4.93;100.00;93236.66;5086617;28;20048;-75
2022/02/05 05:36:48;;;;;;;91.25;45.92;;;;;;;-5.14;100.00;93211.53;5086605;28;20044;-75
2022/02/05 05:39:15;;;;;;;90.03;46.60;;;;;;;-4.78;100.00;93248.97;5086369;28;20071;-75
2022/02/05 05:41:42;;;;;;;91.57;47.85;;;;;;;-4.87;100.00;93233.69;5086462;28;20040;-75
2022/02/05 05:47:03;;;;;;;59.83;33.33;;;;;;;-4.92;100.00;93250.00;5085364;28;20055;-75
2022/02/05 05:49:46;;;;;;;63.30;33.83;;;;;;;-4.98;100.00;93256.25;5086110;28;20052;-75
2022/02/05 05:52:13;;;;;;;64.72;35.38;;;;;;;-5.10;100.00;93243.72;5086261;28;20131;-75
2022/02/05 05:54:39;;;;;;;85.22;46.83;;;;;;;-5.01;100.00;93249.75;5085999;28;20476;-76
2022/02/05 05:57:06;;;;;;;146.95;65.38;;;;;;;-4.94;100.00;93262.63;5086183;28;20399;-75
2022/02/05 05:59:35;;;;;;;220.75;104.78;;;;;;;-5.13;100.00;93265.72;5085975;28;20040;-75
2022/02/05 06:02:02;;;;;;;106.75;48.33;;;;;;;-5.14;100.00;93254.09;5086184;28;20040;-74
2022/02/05 06:04:29;;;;;;;104.80;48.97;;;;;;;-4.93;100.00;93278.44;5085813;28;20066;-75
2022/02/05 06:06:56;;;;;;;115.20;59.53;;;;;;;-4.86;100.00;93267.88;5085621;28;20047;-74
2022/02/05 06:09:23;;;;;;;96.60;49.75;;;;;;;-4.98;100.00;93253.75;5085789;28;20143;-75
2022/02/05 06:11:50;;;;;;;71.88;38.20;;;;;;;-4.94;100.00;93272.66;5085600;28;20040;-75
2022/02/05 06:14:21;;;;;;;84.90;44.10;;;;;;;-5.25;100.00;93278.22;5085939;28;20046;-76
2022/02/05 06:16:53;;;;;;;78.85;40.35;;;;;;;-5.91;100.00;93264.53;5085762;28;20033;-75
2022/02/05 06:19:21;;;;;;;111.07;54.95;;;;;;;-5.80;100.00;93275.47;5085561;28;20135;-75
2022/02/05 06:21:47;;;;;;;111.93;55.75;;;;;;;-5.88;100.00;93275.22;5075570;28;20044;-75
2022/02/05 06:24:15;;;;;;;83.50;45.03;;;;;;;-5.75;100.00;93283.44;5072119;28;20044;-75
2022/02/05 06:26:42;;;;;;;76.47;42.75;;;;;;;-5.60;100.00;93281.53;5071908;28;20051;-75
2022/02/05 06:29:08;;;;;;;84.38;43.70;;;;;;;-5.26;100.00;93273.31;5072088;28;20037;-75
2022/02/05 06:31:35;;;;;;;84.07;42.25;;;;;;;-5.07;100.00;93272.75;5068282;28;20048;-75
2022/02/05 06:34:04;;;;;;;87.70;40.78;;;;;;;-4.88;100.00;93263.88;5069722;28;20037;-74
2022/02/05 06:36:31;;;;;;;80.15;41.95;;;;;;;-4.90;100.00;93280.75;5071733;28;20052;-74
2022/02/05 06:38:58;;;;;;;83.63;39.67;;;;;;;-4.88;100.00;93278.91;5071539;28;20552;-74
2022/02/05 06:41:24;;;;;;;77.03;39.53;;;;;;;-4.66;100.00;93280.63;5071573;28;20037;-74
2022/02/05 06:43:51;;;;;;;73.72;39.20;;;;;;;-4.47;100.00;93282.53;5071233;28;20045;-74
2022/02/05 06:46:18;;;;;;;75.18;42.30;;;;;;;-4.26;100.00;93273.50;5071802;28;20041;-75
2022/02/05 06:48:45;;;;;;;80.45;42.90;;;;;;;-4.06;100.00;93266.94;5071702;28;20044;-75
2022/02/05 06:51:13;;;;;;;84.10;45.00;;;;;;;-3.85;100.00;93282.00;5071099;28;20410;-75
2022/02/05 06:53:40;;;;;;;82.80;43.15;;;;;;;-3.70;100.00;93277.50;5071453;28;20040;-75
2022/02/05 06:56:07;;;;;;;76.53;39.80;;;;;;;-3.50;100.00;93275.94;5071297;28;20048;-75
2022/02/05 06:58:33;;;;;;;79.15;40.47;;;;;;;-3.37;100.00;93273.22;5071115;28;20049;-75
2022/02/05 07:01:00;;;;;;;87.13;44.17;;;;;;;-3.39;100.00;93279.28;5071360;28;20476;-75
2022/02/05 07:03:27;;;;;;;75.57;41.30;;;;;;;-3.24;100.00;93275.53;5071447;28;20067;-75
2022/02/05 07:05:54;;;;;;;72.47;41.60;;;;;;;-3.11;100.00;93284.59;5070889;28;20045;-76
2022/02/05 07:08:22;;;;;;;79.70;43.03;;;;;;;-2.97;100.00;93286.81;5071658;28;20098;-76
2022/02/05 07:10:51;;;;;;;71.60;38.47;;;;;;;-3.02;100.00;93296.44;5071107;28;20503;-76
2022/02/05 07:13:19;;;;;;;99.95;47.83;;;;;;;-3.41;100.00;93291.19;5071650;28;20106;-76
2022/02/05 07:15:54;;;;;;;91.85;49.50;;;;;;;-3.87;100.00;93290.59;5071130;28;20047;-76
2022/02/05 07:18:28;;;;;;;95.72;49.20;;;;;;;-3.84;100.00;93282.81;5069848;28;20060;-76
2022/02/05 07:21:01;;;;;;;81.60;44.00;;;;;;;-4.15;100.00;93270.94;5070953;28;20048;-76
2022/02/05 07:23:43;;;;;;;78.78;40.88;;;;;;;-3.96;100.00;93305.44;5071112;28;20141;-77
2022/02/05 07:29:14;;;;;;;82.72;42.20;;;;;;;-3.65;100.00;93298.03;5070703;28;20125;-76
2022/02/05 07:31:43;;;;;;;85.55;42.08;;;;;;;-3.22;100.00;93293.03;5070512;28;20056;-77
2022/02/05 07:34:11;;;;;;;55.67;33.03;;;;;;;-2.96;100.00;93293.41;5070040;28;20067;-77
2022/02/05 07:36:38;;;;;;;74.50;36.15;;;;;;;-3.10;100.00;93302.06;5070676;28;20475;-76
2022/02/05 07:39:07;;;;;;;63.05;35.17;;;;;;;-3.05;100.00;93310.97;5070752;28;20036;-77
2022/02/05 07:41:35;;;;;;;73.30;37.08;;;;;;;-3.00;100.00;93316.41;5070049;28;20041;-76
2022/02/05 07:44:02;;;;;;;71.05;38.22;;;;;;;-2.74;100.00;93321.81;5070661;28;20087;-77
2022/02/05 07:46:29;;;;;;;71.65;38.65;;;;;;;-2.41;100.00;93316.66;5070607;28;20048;-76
2022/02/05 07:48:56;;;;;;;68.90;35.70;;;;;;;-2.02;100.00;93321.00;5070559;28;20068;-76
2022/02/05 07:51:23;;;;;;;133.68;67.90;;;;;;;-1.79;100.00;93329.13;5070522;28;20048;-76
2022/02/05 07:53:50;;;;;;;75.80;41.90;;;;;;;-1.80;99.87;93341.81;5070427;28;20071;-76
2022/02/05 07:56:18;;;;;;;78.43;41.63;;;;;;;-1.56;99.67;93343.16;5070223;28;20036;-76
2022/02/05 07:58:45;;;;;;;66.35;36.08;;;;;;;-1.71;99.58;93342.75;5070102;28;20040;-75
2022/02/05 08:01:12;;;;;;;53.25;26.40;;;;;;;-1.35;100.00;93340.50;5069989;28;20515;-75
2022/02/05 08:03:39;;;;;;;49.42;21.95;;;;;;;-1.22;96.98;93330.16;5069788;28;20040;-75
2022/02/05 08:06:14;;;;;;;52.42;23.60;;;;;;;-1.14;96.81;93332.81;5069942;28;20055;-76
2022/02/05 08:08:42;;;;;;;45.60;24.45;;;;;;;-1.14;97.77;93289.16;5069710;28;20047;-76
2022/02/05 08:11:12;;;;;;;51.53;25.70;;;;;;;-0.72;97.10;93328.31;5070168;28;20487;-75
2022/02/05 08:13:43;;;;;;;43.72;23.65;;;;;;;-1.07;94.64;93333.03;5068044;28;20048;-75
2022/02/05 08:16:12;;;;;;;43.90;23.20;;;;;;;-1.10;94.56;93331.59;5068357;28;20139;-75
2022/02/05 08:18:39;;;;;;;61.58;30.00;;;;;;;-1.04;94.69;93321.91;5049148;28;20036;-75
2022/02/05 08:21:06;;;;;;;55.97;32.47;;;;;;;-0.81;98.13;93317.34;5057072;28;20040;-75
2022/02/05 08:23:33;;;;;;;70.15;35.63;;;;;;;-0.53;97.23;93312.31;5058934;28;20109;-75
2022/02/05 08:26:00;;;;;;;113.60;67.40;;;;;;;-0.23;96.89;93294.53;5067890;28;20396;-75
2022/02/05 08:28:28;;;;;;;65.63;34.70;;;;;;;-0.06;93.49;93292.94;5069262;28;20052;-75
2022/02/05 08:30:57;;;;;;;79.80;41.17;;;;;;;0.17;93.00;93297.59;5069695;28;20051;-75
2022/02/05 08:33:23;;;;;;;90.43;43.45;;;;;;;0.47;93.40;93305.75;5069757;28;20389;-75
2022/02/05 08:35:50;;;;;;;112.93;58.58;;;;;;;0.66;93.04;93299.75;5069131;28;20443;-75
2022/02/05 08:38:18;;;;;;;93.72;47.22;;;;;;;0.94;92.58;93304.69;5068812;28;20043;-74
2022/02/05 08:40:45;;;;;;;89.47;47.25;;;;;;;1.14;90.14;93299.41;5069106;28;20040;-75
2022/02/05 08:43:12;;;;;;;104.22;50.08;;;;;;;1.17;86.97;93304.19;5068905;28;20117;-74
2022/02/05 08:45:40;;;;;;;91.68;48.45;;;;;;;1.32;88.14;93306.97;5067489;28;20044;-74
2022/02/05 08:48:08;;;;;;;90.05;43.78;;;;;;;1.33;84.51;93303.47;5069046;28;20090;-74
2022/02/05 08:50:35;;;;;;;86.70;44.03;;;;;;;1.41;85.51;93305.25;5069150;28;20044;-74
2022/02/05 08:53:02;;;;;;;116.20;65.22;;;;;;;1.62;88.52;93294.75;5069163;28;20054;-74
2022/02/05 08:55:31;;;;;;;140.70;84.07;;;;;;;1.81;87.03;93303.06;5069384;28;20558;-74
2022/02/05 08:58:01;;;;;;;82.20;43.60;;;;;;;1.95;83.75;93299.13;5069173;28;20036;-75
2022/02/05 09:00:28;;;;;;;78.10;38.88;;;;;;;1.53;80.93;93306.56;5069507;28;20044;-74
2022/02/05 09:02:59;;;;;;;87.82;41.50;;;;;;;1.50;81.57;93313.69;5069106;28;20098;-74
2022/02/05 09:05:37;;;;;;;85.50;43.17;;;;;;;1.36;82.20;93313.31;5069496;28;20040;-74
2022/02/05 09:08:10;;;;;;;81.75;41.00;;;;;;;1.13;83.21;93296.13;5069348;28;20047;-74
2022/02/05 09:10:51;;;;;;;79.28;40.10;;;;;;;1.30;85.72;93312.16;5068796;28;20056;-74
2022/02/05 09:15:59;;;;;;;87.82;39.67;;;;;;;1.19;86.22;93317.47;5068421;28;20090;-74
2022/02/05 09:18:27;;;;;;;93.40;40.15;;;;;;;1.15;88.29;93311.94;5069243;28;20067;-74
2022/02/05 09:20:55;;;;;;;83.18;41.17;;;;;;;1.10;88.91;93308.28;5068858;28;20053;-74
2022/02/05 09:23:22;;;;;;;71.97;35.65;;;;;;;1.04;89.38;93319.75;5068697;28;20045;-74
2022/02/05 09:25:49;;;;;;;55.38;29.35;;;;;;;1.17;90.21;93317.63;5068962;28;20041;-74
2022/02/05 09:28:16;;;;;;;51.22;24.38;;;;;;;1.32;89.23;93317.88;5069232;28;20044;-74
2022/02/05 09:30:48;;;;;;;46.20;21.92;;;;;;;1.41;88.11;93312.84;5068995;28;20048;-74
2022/02/05 09:33:15;;;;;;;43.83;19.63;;;;;;;1.43;87.29;93313.50;5069020;28;20530;-74
2022/02/05 09:35:41;;;;;;;53.08;21.20;;;;;;;1.55;88.14;93303.91;5068718;28;20479;-74
2022/02/05 09:38:10;;;;;;;64.93;22.90;;;;;;;1.77;91.23;93299.22;5069025;28;20044;-74
2022/02/05 09:40:37;;;;;;;55.25;21.92;;;;;;;1.90;88.69;93301.34;5068720;28;20049;-74
2022/02/05 09:43:03;;;;;;;52.58;22.50;;;;;;;2.22;90.07;93287.16;5078050;28;20501;-74
2022/02/05 09:45:30;;;;;;;61.30;22.13;;;;;;;2.35;83.72;93299.34;5087623;28;20044;-74
2022/02/05 09:47:57;;;;;;;43.92;19.95;;;;;;;2.35;84.69;93284.16;5089161;28;20093;-75
2022/02/05 09:50:24;;;;;;;54.75;22.80;;;;;;;2.39;83.36;93290.50;5089104;28;20044;-74
2022/02/05 09:52:53;;;;;;;46.38;22.33;;;;;;;2.42;83.47;93282.59;5088686;28;20616;-74
2022/02/05 09:55:22;;;;;;;56.97;23.10;;;;;;;2.57;82.29;93289.56;5089342;28;20055;-74
2022/02/05 09:57:49;;;;;;;53.75;23.17;;;;;;;2.65;81.68;93282.72;5092664;28;20040;-74
2022/02/05 10:00:18;;;;;;;60.97;24.40;;;;;;;2.73;82.72;93278.63;5092823;28;20044;-75
2022/02/05 10:02:51;;;;;;;66.28;31.23;;;;;;;2.86;84.31;93268.00;5092786;28;20055;-74
2022/02/05 10:05:22;;;;;;;63.45;29.70;;;;;;;3.09;82.61;93268.09;5092590;28;20155;-75
2022/02/05 10:07:56;;;;;;;70.22;31.75;;;;;;;3.28;79.40;93272.03;5092470;28;20044;-74
2022/02/05 10:10:26;;;;;;;68.90;33.95;;;;;;;3.38;77.89;93268.50;5091951;28;20040;-74
2022/02/05 10:13:12;;;;;;;70.05;32.67;;;;;;;3.46;78.74;93265.94;5092616;28;20044;-75
2022/02/05 10:15:41;;;;;;;61.83;28.95;;;;;;;3.59;81.83;93261.13;5092237;28;20055;-74
2022/02/05 10:18:08;;;;;;;72.28;31.55;;;;;;;3.65;80.99;93261.44;5092466;28;20040;-75
2022/02/05 10:20:40;;;;;;;62.90;30.10;;;;;;;3.85;77.44;93264.34;5092173;28;20048;-75
2022/02/05 10:23:09;;;;;;;70.30;31.42;;;;;;;3.88;80.48;93264.00;5092062;28;20051;-75
2022/02/05 10:25:38;;;;;;;61.22;27.63;;;;;;;3.95;76.47;93262.41;5091910;28;20134;-75
2022/02/05 10:28:10;;;;;;;52.60;25.75;;;;;;;3.93;77.81;93233.81;5092378;28;20040;-76
2022/02/05 10:30:41;;;;;;;57.38;24.50;;;;;;;4.16;80.07;93260.22;5092185;28;20130;-75
2022/02/05 10:33:12;;;;;;;58.08;26.52;;;;;;;4.24;80.38;93257.59;5091951;28;20040;-75
2022/02/05 10:35:47;;;;;;;47.20;23.50;;;;;;;4.22;81.51;93255.22;5091987;28;20138;-76
2022/02/05 10:38:33;;;;;;;50.47;23.57;;;;;;;4.19;77.71;93250.50;5092014;28;20127;-76
2022/02/05 10:43:53;;;;;;;42.70;21.67;;;;;;;4.23;75.87;93267.00;5091787;28;20494;-76
2022/02/05 10:46:20;;;;;;;44.42;22.83;;;;;;;4.18;76.86;93261.63;5092009;28;20051;-76
2022/02/05 10:48:47;;;;;;;42.83;22.08;;;;;;;4.24;77.50;93267.78;5091700;28;20036;-76
2022/02/05 10:51:15;;;;;;;45.90;22.05;;;;;;;4.28;75.83;93256.31;5091322;28;20055;-77
2022/02/05 10:53:46;;;;;;;46.00;22.27;;;;;;;4.25;76.33;93259.97;5092150;28;20415;-76
2022/02/05 10:56:30;;;;;;;54.22;23.27;;;;;;;4.35;81.09;93247.03;5091418;28;20043;-76
2022/02/05 11:07:13;;;;;;;53.67;21.10;;;;;;;4.40;81.02;93238.91;5091260;28;20054;-77
2022/02/05 11:09:43;;;;;;;56.55;21.25;;;;;;;4.54;78.92;93234.84;5091009;28;20094;-77
2022/02/05 11:12:22;;;;;;;49.75;21.85;;;;;;;4.54;80.25;93222.13;5091280;28;20051;-77
2022/02/05 11:20:23;;;;;;;54.60;22.52;;;;;;;5.03;81.88;93213.22;5091043;28;20530;-78
2022/02/05 11:22:53;;;;;;;113.20;50.17;;;;;;;5.17;80.90;93215.94;5090976;28;20094;-78
2022/02/05 11:25:22;;;;;;;39.03;17.50;;;;;;;5.28;78.53;93224.91;5091145;28;20040;-78
2022/02/05 11:27:51;;;;;;;41.60;17.60;;;;;;;5.50;78.55;93224.97;5090981;28;20051;-78
2022/02/05 11:30:32;;;;;;;55.63;22.85;;;;;;;5.73;76.27;93228.19;5090959;28;20040;-78
2022/02/05 11:33:04;;;;;;;35.63;14.43;;;;;;;6.11;71.52;93234.09;5090899;28;20036;-78
2022/02/05 11:35:44;;;;;;;38.42;15.70;;;;;;;6.25;71.43;93233.25;5090943;28;20063;-78
2022/02/05 11:38:11;;;;;;;32.30;12.45;;;;;;;6.40;69.11;93233.16;5090152;28;20093;-78
2022/02/05 11:40:46;;;;;;;26.70;12.90;;;;;;;6.37;74.34;93225.91;5090538;28;20098;-78
2022/02/05 11:43:20;;;;;;;32.85;13.20;;;;;;;6.24;73.14;93215.56;5090390;28;20399;-78
2022/02/05 11:45:47;;;;;;;29.20;12.70;;;;;;;6.32;73.74;93215.44;5090834;28;20112;-78
2022/02/05 11:48:53;;;;;;;28.15;12.70;;;;;;;6.48;74.91;93226.38;5090595;28;20097;-78
2022/02/05 11:51:22;;;;;;;36.50;15.85;;;;;;;6.53;74.90;93229.19;5085743;28;20052;-78
2022/02/05 11:54:10;;;;;;;28.88;12.63;;;;;;;6.47;73.57;93220.47;5089873;28;20048;-78
2022/02/05 11:57:00;;;;;;;24.75;10.52;;;;;;;6.36;70.58;93224.31;5090371;28;20518;-78
2022/02/05 11:59:32;;;;;;;31.65;12.27;;;;;;;6.25;74.08;93197.53;5090381;28;20181;-78
2022/02/05 12:02:16;;;;;;;25.85;11.57;;;;;;;6.49;74.41;93210.88;5073989;28;20076;-77
2022/02/05 12:04:43;;;;;;;26.20;14.10;;;;;;;6.65;75.39;93216.69;5049880;28;20045;-77
2022/02/05 12:07:12;;;;;;;28.98;9.45;;;;;;;6.64;72.52;93213.34;5049488;28;20565;-78
2022/02/05 12:09:42;;;;;;;24.63;10.80;;;;;;;6.70;72.50;93211.03;5050126;28;20072;-77
2022/02/05 12:12:46;;;;;;;21.70;10.07;;;;;;;6.63;73.19;93216.88;5050329;28;20041;-78
2022/02/05 12:15:25;;;;;;;29.45;10.13;;;;;;;6.49;73.46;93217.75;5049677;28;20134;-77
2022/02/05 12:18:15;;;;;;;23.10;9.40;;;;;;;6.38;74.68;93211.38;5040668;28;20045;-77
2022/02/05 12:21:05;;;;;;;27.85;12.07;;;;;;;6.34;75.31;93215.28;5027304;28;20081;-77
2022/02/05 12:27:01;;;;;;;20.35;6.53;;;;;;;6.49;69.46;93203.22;5029727;28;20086;-77
2022/02/05 12:29:33;;;;;;;22.95;8.98;;;;;;;6.66;70.66;93211.41;5029582;28;20045;-77
2022/02/05 12:32:02;;;;;;;20.20;7.18;;;;;;;6.54;71.62;93211.09;5029559;28;21132;-77
2022/02/05 12:34:36;;;;;;;31.88;9.10;;;;;;;6.54;72.99;93205.22;5029959;28;20038;-77
2022/02/05 12:37:04;;;;;;;32.80;10.18;;;;;;;6.61;73.74;93205.28;5029735;28;20439;-77
2022/02/05 12:39:34;;;;;;;26.48;8.05;;;;;;;6.71;68.98;93202.41;5029549;28;20525;-78
2022/02/05 12:42:04;;;;;;;18.35;7.60;;;;;;;6.87;72.86;93203.88;5029826;28;20107;-78
2022/02/05 12:44:31;;;;;;;20.58;7.57;;;;;;;6.94;72.46;93202.94;5029380;28;20477;-78
2022/02/05 12:47:05;;;;;;;21.75;7.40;;;;;;;7.05;68.64;93200.84;5029589;28;20489;-78
2022/02/05 12:49:38;;;;;;;16.02;6.22;;;;;;;7.03;71.14;93198.47;5029664;28;20136;-78
2022/02/05 12:52:06;;;;;;;13.38;4.97;;;;;;;6.92;70.38;93184.47;5029324;28;20045;-79
2022/02/05 12:54:35;;;;;;;10.45;3.75;;;;;;;6.94;68.53;93187.63;5029199;28;20568;-79
2022/02/05 12:57:02;;;;;;;8.75;4.20;;;;;;;7.06;70.98;93198.13;5029304;28;20576;-78
2022/02/05 12:59:32;;;;;;;14.30;4.20;;;;;;;6.88;68.37;93180.72;5029515;28;20037;-79
2022/02/05 13:02:00;;;;;;;9.75;4.10;;;;;;;6.94;70.61;93185.06;5029502;28;20041;-79
2022/02/05 13:04:30;;;;;;;8.00;3.58;;;;;;;6.74;70.95;93187.50;5029526;28;20037;-78
2022/02/05 13:07:06;;;;;;;12.52;4.15;;;;;;;6.72;72.00;93183.56;5028977;28;20477;-79
2022/02/05 13:09:36;;;;;;;12.43;4.68;;;;;;;6.56;69.51;93193.06;5029275;28;20465;-78
2022/02/05 13:12:06;;;;;;;12.23;5.07;;;;;;;6.45;72.57;93185.91;5029406;28;20099;-78
2022/02/05 13:14:43;;;;;;;22.25;10.07;;;;;;;6.53;74.92;93201.09;5028853;28;20081;-78
2022/02/05 13:17:28;;;;;;;12.98;5.97;;;;;;;6.49;74.94;93202.44;5028910;28;20041;-78